createdAt,value
2022-10-18T00:00:25.498Z,13.48
2022-10-18T00:02:53.340Z,13.47
2022-10-18T00:05:20.228Z,13.37
2022-10-18T00:07:47.073Z,13.33
2022-10-18T00:10:13.901Z,13.32
2022-10-18T00:12:40.769Z,13.29
2022-10-18T00:15:08.523Z,13.41
2022-10-18T00:17:41.222Z,13.38
2022-10-18T00:20:08.640Z,13.37
2022-10-18T00:22:40.565Z,13.41
2022-10-18T00:25:09.192Z,13.32
2022-10-18T00:27:36.706Z,13.37
2022-10-18T00:30:04.629Z,13.38
2022-10-18T00:32:31.861Z,13.44
2022-10-18T00:34:59.275Z,13.38
2022-10-18T00:37:28.252Z,13.40
2022-10-18T00:39:54.998Z,13.28
2022-10-18T00:42:25.247Z,13.24
2022-10-18T00:44:51.977Z,13.22
2022-10-18T00:47:19.889Z,13.21
2022-10-18T00:49:55.741Z,13.27
2022-10-18T00:52:39.646Z,13.23
2022-10-18T00:55:09.212Z,13.21
2022-10-18T00:57:36.894Z,13.14
2022-10-18T01:00:09.732Z,13.06
2022-10-18T01:02:38.830Z,13.07
2022-10-18T01:05:06.494Z,13.13
2022-10-18T01:08:05.457Z,13.16
2022-10-18T01:10:53.287Z,13.11
2022-10-18T01:13:52.260Z,12.99
2022-10-18T01:16:27.426Z,12.97
2022-10-18T01:18:58.402Z,12.94
2022-10-18T01:21:45.091Z,12.99
2022-10-18T01:24:33.344Z,12.97
2022-10-18T01:27:13.670Z,12.94
2022-10-18T01:30:22.370Z,12.96
2022-10-18T01:32:52.549Z,12.88
2022-10-18T01:35:25.120Z,12.87
2022-10-18T01:37:56.033Z,12.84
2022-10-18T01:40:24.957Z,12.93
2022-10-18T01:42:54.554Z,12.92
2022-10-18T01:45:24.209Z,12.82
2022-10-18T01:47:52.495Z,12.72
2022-10-18T01:50:30.316Z,12.79
2022-10-18T01:52:57.599Z,12.79
2022-10-18T01:55:41.167Z,12.83
2022-10-18T01:58:46.552Z,12.76
2022-10-18T02:01:28.840Z,12.82
2022-10-18T02:04:04.075Z,12.79
2022-10-18T02:06:38.276Z,12.77
2022-10-18T02:09:18.861Z,12.78
2022-10-18T02:11:46.699Z,12.82
2022-10-18T02:14:16.419Z,12.80
2022-10-18T02:16:51.395Z,12.82
2022-10-18T02:19:33.303Z,12.82
2022-10-18T02:22:01.247Z,12.82
2022-10-18T02:24:37.575Z,12.80
2022-10-18T02:27:04.783Z,12.81
2022-10-18T02:29:32.834Z,12.74
2022-10-18T02:32:16.438Z,12.71
2022-10-18T02:34:46.726Z,12.67
2022-10-18T02:37:15.575Z,12.70
2022-10-18T02:39:51.163Z,12.69
2022-10-18T02:42:17.947Z,12.73
2022-10-18T02:44:47.272Z,12.71
2022-10-18T02:47:17.211Z,12.63
2022-10-18T02:49:46.451Z,12.51
2022-10-18T02:52:14.776Z,12.44
2022-10-18T02:54:41.637Z,12.38
2022-10-18T02:57:08.787Z,12.38
2022-10-18T02:59:35.563Z,12.35
2022-10-18T03:02:02.513Z,12.32
2022-10-18T03:04:29.508Z,12.28
2022-10-18T03:06:56.406Z,12.21
2022-10-18T03:09:23.272Z,12.23
2022-10-18T03:11:50.053Z,12.26
2022-10-18T03:14:18.929Z,12.30
2022-10-18T03:16:45.803Z,12.27
2022-10-18T03:19:12.606Z,12.27
2022-10-18T03:21:42.029Z,12.26
2022-10-18T03:24:08.730Z,12.26
2022-10-18T03:26:35.506Z,12.26
2022-10-18T03:29:02.285Z,12.23
2022-10-18T03:33:57.514Z,12.18
2022-10-18T03:36:27.119Z,12.24
2022-10-18T03:38:56.275Z,12.27
2022-10-18T03:41:27.930Z,12.27
2022-10-18T03:43:54.823Z,12.25
2022-10-18T03:46:21.707Z,12.24
2022-10-18T03:48:48.555Z,12.29
2022-10-18T03:51:15.425Z,12.39
2022-10-18T03:53:44.932Z,12.44
2022-10-18T03:56:11.766Z,12.45
2022-10-18T03:58:38.631Z,12.54
2022-10-18T04:01:08.499Z,12.47
2022-10-18T04:03:35.236Z,12.60
2022-10-18T04:06:03.780Z,12.55
2022-10-18T04:08:30.740Z,12.56
2022-10-18T04:10:57.709Z,12.60
2022-10-18T04:13:31.854Z,12.61
2022-10-18T04:16:01.034Z,12.68
2022-10-18T04:18:28.064Z,12.73
2022-10-18T04:20:54.810Z,12.77
2022-10-18T04:23:21.579Z,12.81
2022-10-18T04:25:48.403Z,12.82
2022-10-18T04:28:15.398Z,12.76
2022-10-18T04:30:46.604Z,12.83
2022-10-18T04:33:13.411Z,12.85
2022-10-18T04:35:40.054Z,12.85
2022-10-18T04:38:06.953Z,12.86
2022-10-18T04:40:33.737Z,12.85
2022-10-18T04:43:00.402Z,12.88
2022-10-18T04:45:27.194Z,12.91
2022-10-18T04:47:54.018Z,12.92
2022-10-18T04:50:20.725Z,12.92
2022-10-18T04:52:47.665Z,12.92
2022-10-18T04:55:14.542Z,12.98
2022-10-18T04:57:41.331Z,12.92
2022-10-18T05:00:08.412Z,12.89
2022-10-18T05:02:35.200Z,12.88
2022-10-18T05:05:01.933Z,12.87
2022-10-18T05:07:28.622Z,12.88
2022-10-18T05:09:55.480Z,12.94
2022-10-18T05:12:22.385Z,12.97
2022-10-18T05:14:52.211Z,12.98
2022-10-18T05:17:18.980Z,12.98
2022-10-18T05:19:45.809Z,12.99
2022-10-18T05:22:12.540Z,12.98
2022-10-18T05:24:41.716Z,12.99
2022-10-18T05:27:10.293Z,12.93
2022-10-18T05:29:37.062Z,12.91
2022-10-18T05:32:05.689Z,12.92
2022-10-18T05:34:33.085Z,12.85
2022-10-18T05:37:00.155Z,12.81
2022-10-18T05:39:26.986Z,12.84
2022-10-18T05:41:53.593Z,12.87
2022-10-18T05:44:22.565Z,12.97
2022-10-18T05:46:51.778Z,12.89
2022-10-18T05:49:18.413Z,12.92
2022-10-18T05:51:45.696Z,12.97
2022-10-18T05:54:12.549Z,12.97
2022-10-18T05:59:10.265Z,13.00
2022-10-18T06:01:38.653Z,13.07
2022-10-18T06:04:06.095Z,13.04
2022-10-18T06:06:33.826Z,13.07
2022-10-18T06:09:00.562Z,13.08
2022-10-18T06:11:27.220Z,13.10
2022-10-18T06:13:53.858Z,13.11
2022-10-18T06:16:22.518Z,13.17
2022-10-18T06:18:54.401Z,13.15
2022-10-18T06:21:22.351Z,13.17
2022-10-18T06:23:54.001Z,13.26
2022-10-18T06:26:21.363Z,13.33
2022-10-18T06:28:48.507Z,13.37
2022-10-18T06:31:15.460Z,13.40
2022-10-18T06:33:42.573Z,13.43
2022-10-18T06:36:22.160Z,13.50
2022-10-18T06:38:49.496Z,13.52
2022-10-18T06:41:19.631Z,13.62
2022-10-18T06:43:50.505Z,13.69
2022-10-18T06:46:17.403Z,13.75
2022-10-18T06:48:44.156Z,13.80
2022-10-18T06:51:11.618Z,13.84
2022-10-18T06:53:44.542Z,13.89
2022-10-18T06:56:25.763Z,13.93
2022-10-18T06:58:52.491Z,13.97
2022-10-18T07:01:19.821Z,13.96
2022-10-18T07:03:49.997Z,14.03
2022-10-18T07:06:19.055Z,14.05
2022-10-18T07:08:46.864Z,14.10
2022-10-18T07:11:23.746Z,14.12
2022-10-18T07:13:50.529Z,14.10
2022-10-18T07:16:18.991Z,14.05
2022-10-18T07:18:50.735Z,13.94
2022-10-18T07:21:22.720Z,13.91
2022-10-18T07:23:50.791Z,13.89
2022-10-18T07:26:43.715Z,13.83
2022-10-18T07:29:12.614Z,13.82
2022-10-18T07:31:41.028Z,13.78
2022-10-18T07:34:10.658Z,13.76
2022-10-18T07:36:37.819Z,13.72
2022-10-18T07:39:07.329Z,13.73
2022-10-18T07:41:37.251Z,13.68
2022-10-18T07:44:04.368Z,13.77
2022-10-18T07:46:31.623Z,13.85
2022-10-18T07:48:59.582Z,13.93
2022-10-18T07:51:32.441Z,13.92
2022-10-18T07:53:59.634Z,14.02
2022-10-18T07:56:26.260Z,14.16
2022-10-18T07:58:55.704Z,14.30
2022-10-18T08:01:23.912Z,14.42
2022-10-18T08:03:51.264Z,14.56
2022-10-18T08:06:20.110Z,14.77
2022-10-18T08:08:47.132Z,14.92
2022-10-18T08:11:16.538Z,15.05
2022-10-18T08:13:44.056Z,15.07
2022-10-18T08:16:14.618Z,15.20
2022-10-18T08:18:42.081Z,15.21
2022-10-18T08:21:10.671Z,15.17
2022-10-18T08:23:37.843Z,15.23
2022-10-18T08:26:09.951Z,15.35
2022-10-18T08:28:39.485Z,15.54
2022-10-18T08:31:08.609Z,15.63
2022-10-18T08:33:36.288Z,15.79
2022-10-18T08:36:06.258Z,15.95
2022-10-18T08:38:38.170Z,16.17
2022-10-18T08:41:45.544Z,16.38
2022-10-18T08:44:31.763Z,16.65
2022-10-18T08:47:17.985Z,16.92
2022-10-18T08:49:51.962Z,17.26
2022-10-18T08:52:30.837Z,17.57
2022-10-18T08:55:04.301Z,17.68
2022-10-18T08:57:34.480Z,17.75
2022-10-18T09:00:25.416Z,17.93
2022-10-18T09:03:13.993Z,18.05
2022-10-18T09:05:50.767Z,18.11
2022-10-18T09:08:32.571Z,18.09
2022-10-18T09:11:18.077Z,18.17
2022-10-18T09:14:02.024Z,18.37
2022-10-18T09:16:55.202Z,18.67
2022-10-18T09:19:55.734Z,18.93
2022-10-18T09:22:57.294Z,19.07
2022-10-18T09:25:44.565Z,19.06
2022-10-18T09:28:37.833Z,19.02
2022-10-18T09:31:22.097Z,19.17
2022-10-18T09:34:06.142Z,19.41
2022-10-18T09:36:37.200Z,19.58
2022-10-18T09:39:12.025Z,19.75
2022-10-18T09:42:03.154Z,19.93
2022-10-18T09:44:45.178Z,20.09
2022-10-18T09:47:18.421Z,20.28
2022-10-18T09:49:55.003Z,20.42
2022-10-18T09:52:55.958Z,20.34
2022-10-18T09:55:28.828Z,20.17
2022-10-18T09:57:59.850Z,20.07
2022-10-18T10:00:34.562Z,20.16
2022-10-18T10:03:02.030Z,20.20
2022-10-18T10:05:28.985Z,20.29
2022-10-18T10:08:00.105Z,20.38
2022-10-18T10:10:28.776Z,20.30
2022-10-18T10:13:26.269Z,20.29
2022-10-18T10:16:03.596Z,20.36
2022-10-18T10:18:34.150Z,20.32
2022-10-18T10:21:05.781Z,20.29
2022-10-18T10:23:39.852Z,20.29
2022-10-18T10:26:32.261Z,20.04
2022-10-18T10:28:59.360Z,19.83
2022-10-18T10:31:33.862Z,19.72
2022-10-18T10:34:13.388Z,19.75
2022-10-18T10:36:59.069Z,19.68
2022-10-18T10:39:26.074Z,19.75
2022-10-18T10:41:59.651Z,19.81
2022-10-18T10:44:32.391Z,19.80
2022-10-18T10:46:59.677Z,19.82
2022-10-18T10:49:43.633Z,19.84
2022-10-18T10:52:29.065Z,19.67
2022-10-18T10:55:23.645Z,19.57
2022-10-18T10:57:51.364Z,19.39
2022-10-18T11:00:41.896Z,19.32
2022-10-18T11:03:31.452Z,18.91
2022-10-18T11:06:01.039Z,18.45
2022-10-18T11:08:33.529Z,18.12
2022-10-18T11:11:23.027Z,17.99
2022-10-18T11:14:13.272Z,17.70
2022-10-18T11:16:51.204Z,17.14
2022-10-18T11:19:33.132Z,16.91
2022-10-18T11:22:04.286Z,16.75
2022-10-18T11:24:31.468Z,16.64
2022-10-18T11:27:19.456Z,16.51
2022-10-18T11:30:02.675Z,16.47
2022-10-18T11:32:45.950Z,16.55
2022-10-18T11:35:23.761Z,16.65
2022-10-18T11:38:19.656Z,16.94
2022-10-18T11:40:52.259Z,17.05
2022-10-18T11:44:01.154Z,17.23
2022-10-18T11:46:57.201Z,17.27
2022-10-18T11:49:33.945Z,17.36
2022-10-18T11:52:19.387Z,17.23
2022-10-18T11:54:58.205Z,17.30
2022-10-18T11:57:57.192Z,17.42
2022-10-18T12:00:47.815Z,17.43
2022-10-18T12:03:25.778Z,17.48
2022-10-18T12:06:00.887Z,17.56
2022-10-18T12:08:33.599Z,17.63
2022-10-18T12:11:08.023Z,17.81
2022-10-18T12:13:51.837Z,17.93
2022-10-18T12:16:49.401Z,17.95
2022-10-18T12:19:26.559Z,18.04
2022-10-18T12:22:02.943Z,18.11
2022-10-18T12:24:32.016Z,18.12
2022-10-18T12:27:01.600Z,18.14
2022-10-18T12:29:44.278Z,18.22
2022-10-18T12:32:21.961Z,18.38
2022-10-18T12:35:00.464Z,18.34
2022-10-18T12:37:57.887Z,18.30
2022-10-18T12:40:44.955Z,18.20
2022-10-18T12:43:36.841Z,18.06
2022-10-18T12:46:13.506Z,17.92
2022-10-18T12:48:45.702Z,17.78
2022-10-18T12:51:22.875Z,17.60
2022-10-18T12:54:08.309Z,17.56
2022-10-18T12:56:38.541Z,17.56
2022-10-18T12:59:14.837Z,17.63
2022-10-18T13:01:50.722Z,17.71
2022-10-18T13:04:38.297Z,17.70
2022-10-18T13:07:05.005Z,17.81
2022-10-18T13:09:37.785Z,17.72
2022-10-18T13:12:10.498Z,17.81
2022-10-18T13:15:24.129Z,17.98
2022-10-18T13:18:02.518Z,18.12
2022-10-18T13:20:46.325Z,18.17
2022-10-18T13:23:27.793Z,18.13
2022-10-18T13:26:04.651Z,18.21
2022-10-18T13:28:42.905Z,18.15
2022-10-18T13:31:12.629Z,18.18
2022-10-18T13:33:42.466Z,18.44
2022-10-18T13:36:23.418Z,18.57
2022-10-18T13:38:55.769Z,18.60
2022-10-18T13:41:28.275Z,18.53
2022-10-18T13:44:22.759Z,18.47
2022-10-18T13:46:49.317Z,18.32
2022-10-18T13:49:32.489Z,18.26
2022-10-18T13:52:08.219Z,18.28
2022-10-18T13:54:56.662Z,18.40
2022-10-18T13:57:51.596Z,18.57
2022-10-18T14:00:35.301Z,18.67
2022-10-18T14:03:31.608Z,18.74
2022-10-18T14:06:03.955Z,18.71
2022-10-18T14:08:52.743Z,18.67
2022-10-18T14:11:19.365Z,18.66
2022-10-18T14:13:51.958Z,18.67
2022-10-18T14:16:43.634Z,18.60
2022-10-18T14:19:16.164Z,18.75
2022-10-18T14:21:51.381Z,18.71
2022-10-18T14:24:24.645Z,18.73
2022-10-18T14:27:17.169Z,18.82
2022-10-18T14:29:44.077Z,18.75
2022-10-18T14:32:21.985Z,18.74
2022-10-18T14:34:48.644Z,18.74
2022-10-18T14:37:34.439Z,18.59
2022-10-18T14:40:02.517Z,18.43
2022-10-18T14:42:29.506Z,18.46
2022-10-18T14:45:00.497Z,18.35
2022-10-18T14:47:30.095Z,18.31
2022-10-18T14:50:00.909Z,18.27
2022-10-18T14:52:35.435Z,18.06
2022-10-18T14:55:03.247Z,18.03
2022-10-18T14:57:33.875Z,18.03
2022-10-18T15:00:08.763Z,18.10
2022-10-18T15:02:39.456Z,18.09
2022-10-18T15:05:25.525Z,18.12
2022-10-18T15:07:53.577Z,17.97
2022-10-18T15:10:28.433Z,17.86
2022-10-18T15:13:16.530Z,17.75
2022-10-18T15:15:44.204Z,17.68
2022-10-18T15:18:22.180Z,17.56
2022-10-18T15:21:07.981Z,17.36
2022-10-18T15:23:36.877Z,17.29
2022-10-18T15:26:11.296Z,17.21
2022-10-18T15:28:50.992Z,17.20
2022-10-18T15:31:37.472Z,17.15
2022-10-18T15:34:21.610Z,17.17
2022-10-18T15:36:50.004Z,17.24
2022-10-18T15:39:37.108Z,17.31
2022-10-18T15:42:04.469Z,17.26
2022-10-18T15:44:46.917Z,17.22
2022-10-18T15:47:13.520Z,17.19
2022-10-18T15:49:46.291Z,17.17
2022-10-18T15:52:32.579Z,17.11
2022-10-18T15:55:22.760Z,17.06
2022-10-18T15:57:49.843Z,17.03
2022-10-18T16:00:20.425Z,17.00
2022-10-18T16:02:47.170Z,16.96
2022-10-18T16:05:17.303Z,16.91
2022-10-18T16:07:44.155Z,16.91
2022-10-18T16:10:17.160Z,16.86
2022-10-18T16:12:43.861Z,16.80
2022-10-18T16:15:10.677Z,16.75
2022-10-18T16:17:37.317Z,16.73
2022-10-18T16:20:04.332Z,16.72
2022-10-18T16:22:33.388Z,16.61
2022-10-18T16:25:02.956Z,16.58
2022-10-18T16:27:32.094Z,16.55
2022-10-18T16:29:59.340Z,16.50
2022-10-18T16:32:26.173Z,16.53
2022-10-18T16:34:55.012Z,16.56
2022-10-18T16:37:24.474Z,16.55
2022-10-18T16:39:51.181Z,16.55
2022-10-18T16:42:18.071Z,16.58
2022-10-18T16:44:45.410Z,16.61
2022-10-18T16:47:12.088Z,16.61
2022-10-18T16:49:39.814Z,16.62
2022-10-18T16:52:09.228Z,16.64
2022-10-18T16:54:36.121Z,16.63
2022-10-18T16:57:03.468Z,16.64
2022-10-18T16:59:31.605Z,16.62
2022-10-18T17:01:58.495Z,16.61
2022-10-18T17:04:25.078Z,16.58
2022-10-18T17:06:54.378Z,16.59
2022-10-18T17:09:21.007Z,16.58
2022-10-18T17:11:47.650Z,16.60
2022-10-18T17:14:14.302Z,16.54
2022-10-18T17:16:43.604Z,16.50
2022-10-18T17:19:13.113Z,16.41
2022-10-18T17:21:39.780Z,16.30
2022-10-18T17:24:08.898Z,16.35
2022-10-18T17:26:35.671Z,16.34
2022-10-18T17:29:06.273Z,16.29
2022-10-18T17:31:33.459Z,16.24
2022-10-18T17:34:02.874Z,16.20
2022-10-18T17:36:31.295Z,16.13
2022-10-18T17:38:58.405Z,16.08
2022-10-18T17:41:25.332Z,16.09
2022-10-18T17:43:52.094Z,16.08
2022-10-18T17:46:22.534Z,16.02
2022-10-18T17:48:49.577Z,16.02
2022-10-18T17:51:17.406Z,16.04
2022-10-18T17:53:44.216Z,16.05
2022-10-18T17:56:11.757Z,16.02
2022-10-18T17:58:38.663Z,16.08
2022-10-18T18:01:12.082Z,15.97
2022-10-18T18:03:40.104Z,16.01
2022-10-18T18:06:22.256Z,15.92
2022-10-18T18:08:49.881Z,15.85
2022-10-18T18:11:17.355Z,15.84
2022-10-18T18:13:44.078Z,15.78
2022-10-18T18:16:17.002Z,15.78
2022-10-18T18:18:44.252Z,15.67
2022-10-18T18:21:11.516Z,15.61
2022-10-18T18:23:39.328Z,15.55
2022-10-18T18:26:08.132Z,15.47
2022-10-18T18:28:38.274Z,15.41
2022-10-18T18:31:09.464Z,15.35
2022-10-18T18:33:37.345Z,15.25
2022-10-18T18:36:05.136Z,15.17
2022-10-18T18:38:32.736Z,15.11
2022-10-18T18:41:24.657Z,15.08
2022-10-18T18:44:11.508Z,15.01
2022-10-18T18:46:38.840Z,14.93
2022-10-18T18:49:07.274Z,14.92
2022-10-18T18:51:37.421Z,14.85
2022-10-18T18:54:04.766Z,14.80
2022-10-18T18:56:31.479Z,14.79
2022-10-18T18:59:00.934Z,14.77
2022-10-18T19:01:30.437Z,14.72
2022-10-18T19:03:58.228Z,14.66
2022-10-18T19:06:30.957Z,14.62
2022-10-18T19:09:02.953Z,14.55
2022-10-18T19:11:32.789Z,14.51
2022-10-18T19:14:00.139Z,14.48
2022-10-18T19:16:28.831Z,14.42
2022-10-18T19:19:01.376Z,14.37
2022-10-18T19:21:33.248Z,14.29
2022-10-18T19:24:00.226Z,14.28
2022-10-18T19:26:32.093Z,14.29
2022-10-18T19:29:08.615Z,14.25
2022-10-18T19:31:35.798Z,14.23
2022-10-18T19:34:08.007Z,14.24
2022-10-18T19:36:35.240Z,14.22
2022-10-18T19:39:03.138Z,14.22
2022-10-18T19:41:29.763Z,14.21
2022-10-18T19:43:57.067Z,14.29
2022-10-18T19:46:23.742Z,14.30
2022-10-18T19:48:50.504Z,14.35
2022-10-18T19:51:20.315Z,14.30
2022-10-18T19:53:50.645Z,14.25
2022-10-18T19:56:21.023Z,14.24
2022-10-18T19:58:48.804Z,14.23
2022-10-18T20:01:19.270Z,14.25
2022-10-18T20:03:46.978Z,14.28
2022-10-18T20:06:14.039Z,14.29
2022-10-18T20:11:14.114Z,14.40
2022-10-18T20:13:40.824Z,14.40
2022-10-18T20:16:09.176Z,14.42
2022-10-18T20:18:36.055Z,14.47
2022-10-18T20:21:07.717Z,14.51
2022-10-18T20:23:39.425Z,14.49
2022-10-18T20:26:08.864Z,14.43
2022-10-18T20:28:37.729Z,14.41
2022-10-18T20:31:06.368Z,14.41
2022-10-18T20:33:33.937Z,14.33
2022-10-18T20:36:06.580Z,14.36
2022-10-18T20:38:35.092Z,14.38
2022-10-18T20:41:07.658Z,14.35
2022-10-18T20:43:35.163Z,14.42
2022-10-18T20:46:02.762Z,14.40
2022-10-18T20:48:31.159Z,14.37
2022-10-18T20:51:02.236Z,14.34
2022-10-18T20:53:30.871Z,14.36
2022-10-18T20:56:27.186Z,14.40
2022-10-18T20:58:56.551Z,14.38
2022-10-18T21:01:28.806Z,14.35
2022-10-18T21:03:58.005Z,14.37
2022-10-18T21:06:26.007Z,14.38
2022-10-18T21:09:13.311Z,14.36
2022-10-18T21:11:42.671Z,14.34
2022-10-18T21:14:18.590Z,14.29
2022-10-18T21:16:45.906Z,14.16
2022-10-18T21:19:26.848Z,14.10
2022-10-18T21:21:57.406Z,14.02
2022-10-18T21:24:26.529Z,13.90
2022-10-18T21:26:55.966Z,13.86
2022-10-18T21:29:24.549Z,13.78
2022-10-18T21:31:55.359Z,13.73
2022-10-18T21:34:22.297Z,13.68
2022-10-18T21:36:49.384Z,13.60
2022-10-18T21:41:51.196Z,13.50
2022-10-18T21:44:18.466Z,13.47
2022-10-18T21:46:46.563Z,13.45
2022-10-18T21:49:14.430Z,13.42
2022-10-18T21:51:42.113Z,13.36
2022-10-18T21:54:12.594Z,13.35
2022-10-18T21:56:39.197Z,13.34
2022-10-18T21:59:06.001Z,13.35
2022-10-18T22:01:35.217Z,13.38
2022-10-18T22:04:05.577Z,13.49
2022-10-18T22:09:04.999Z,13.54
2022-10-18T22:11:42.281Z,13.61
2022-10-18T22:14:09.097Z,13.69
2022-10-18T22:16:35.935Z,13.70
2022-10-18T22:19:03.929Z,13.74
2022-10-18T22:21:30.912Z,13.75
2022-10-18T22:23:58.727Z,13.82
2022-10-18T22:26:29.548Z,13.79
2022-10-18T22:28:58.817Z,13.80
2022-10-18T22:31:28.116Z,13.85
2022-10-18T22:33:57.263Z,13.87
2022-10-18T22:36:24.673Z,13.87
2022-10-18T22:38:51.338Z,13.95
2022-10-18T22:41:18.850Z,13.84
2022-10-18T22:43:49.997Z,13.84
2022-10-18T22:46:17.557Z,13.76
2022-10-18T22:48:44.540Z,13.76
2022-10-18T22:51:12.053Z,13.80
2022-10-18T22:53:40.020Z,13.81
2022-10-18T22:56:09.927Z,13.85
2022-10-18T22:58:36.504Z,13.89
2022-10-18T23:01:13.473Z,13.81
2022-10-18T23:03:40.305Z,13.82
2022-10-18T23:06:19.979Z,13.82
2022-10-18T23:08:46.837Z,13.80
2022-10-18T23:11:13.749Z,13.76
2022-10-18T23:13:40.389Z,13.70
2022-10-18T23:16:07.236Z,13.67
2022-10-18T23:18:33.957Z,13.67
2022-10-18T23:21:05.709Z,13.68
2022-10-18T23:23:36.683Z,13.61
2022-10-18T23:26:05.358Z,13.54
2022-10-18T23:28:36.550Z,13.44
2022-10-18T23:31:12.005Z,13.38
2022-10-18T23:33:39.301Z,13.41
2022-10-18T23:36:08.084Z,13.43
2022-10-18T23:38:35.913Z,13.36
2022-10-18T23:41:02.903Z,13.36
2022-10-18T23:43:29.475Z,13.36
2022-10-18T23:45:56.218Z,13.37
2022-10-18T23:48:22.829Z,13.26
2022-10-18T23:50:49.525Z,13.19
2022-10-18T23:53:16.354Z,13.19
2022-10-18T23:55:53.006Z,13.13
2022-10-18T23:58:20.026Z,13.15
